Time;durP1;ratioP1;P1;durP2;ratioP2;P2;SDS_P1;SDS_P2;PMS_P1;PMS_P2;Temp;Humidity;BMP_temperature;BMP_pressure;BME280_temperature;BME280_humidity;BME280_pressure;Samples;Min_cycle;Max_cycle;Signal;HPM_P1;HPM_P2
2021/12/17 00:04:51;;;;;;;32.85;21.52;;;6.20;99.90;;;;;;5011015;28;20058;-51
2021/12/17 00:07:19;;;;;;;30.20;21.23;;;6.30;99.90;;;;;;5007462;28;20053;-51
2021/12/17 00:09:46;;;;;;;31.20;19.35;;;6.40;99.90;;;;;;5011057;28;20093;-50
2021/12/17 00:12:15;;;;;;;28.73;19.90;;;6.40;99.90;;;;;;5011030;28;20034;-49
2021/12/17 00:14:46;;;;;;;29.30;19.50;;;6.40;99.90;;;;;;5011799;28;20030;-50
2021/12/17 00:17:17;;;;;;;31.53;20.33;;;6.40;99.90;;;;;;5011212;28;20046;-52
2021/12/17 00:20:24;;;;;;;27.13;19.33;;;6.40;99.90;;;;;;5010946;28;20361;-52
2021/12/17 00:49:52;;;;;;;29.27;21.02;;;6.40;99.90;;;;;;5070382;28;20037;-50
2021/12/17 00:52:18;;;;;;;32.70;24.02;;;6.40;99.90;;;;;;5058925;28;20097;-51
2021/12/17 00:54:44;;;;;;;30.55;23.20;;;6.40;99.90;;;;;;5037683;28;20032;-48
2021/12/17 00:57:14;;;;;;;30.95;20.73;;;6.40;99.90;;;;;;5066133;28;20122;-49
2021/12/17 00:59:43;;;;;;;30.73;22.33;;;6.50;99.90;;;;;;5067472;28;20045;-49
2021/12/17 01:02:13;;;;;;;33.67;22.25;;;6.50;99.90;;;;;;5065039;28;20145;-48
2021/12/17 01:04:43;;;;;;;29.85;21.52;;;6.50;99.90;;;;;;5066521;28;20041;-51
2021/12/17 01:07:10;;;;;;;27.98;20.13;;;6.40;99.90;;;;;;5066613;28;20077;-49
2021/12/17 01:09:36;;;;;;;27.23;18.52;;;6.50;99.90;;;;;;5067173;28;20068;-52
2021/12/17 01:12:02;;;;;;;28.00;21.33;;;6.40;99.90;;;;;;5068691;28;20120;-49
2021/12/17 01:14:29;;;;;;;28.40;20.35;;;6.40;99.90;;;;;;5031356;28;20561;-49
2021/12/17 01:16:57;;;;;;;28.75;20.30;;;6.40;99.90;;;;;;5068359;28;20496;-51
2021/12/17 01:35:21;;;;;;;27.48;18.92;;;6.40;99.90;;;;;;5064947;28;20043;-50
2021/12/17 01:43:08;;;;;;;25.48;17.15;;;6.40;99.90;;;;;;5072318;28;20038;-51
2021/12/17 01:45:38;;;;;;;30.58;21.33;;;6.40;99.90;;;;;;5067596;28;20033;-51
2021/12/17 01:48:09;;;;;;;27.33;18.38;;;6.40;99.90;;;;;;5066503;28;20043;-52
2021/12/17 01:56:31;;;;;;;25.63;18.20;;;6.30;99.90;;;;;;5066816;28;20035;-49
2021/12/17 02:01:43;;;;;;;27.67;17.95;;;6.40;99.90;;;;;;5066836;28;20082;-49
2021/12/17 02:04:08;;;;;;;27.45;18.80;;;6.40;99.90;;;;;;5020442;28;20067;-52
2021/12/17 02:06:37;;;;;;;28.25;18.20;;;6.50;99.90;;;;;;5003944;28;20185;-50
2021/12/17 02:09:38;;;;;;;26.35;18.98;;;6.50;99.90;;;;;;5054152;28;20072;-51
2021/12/17 02:31:47;;;;;;;16.35;12.00;;;6.50;99.90;;;;;;4955080;28;20514;-53
2021/12/17 02:36:55;;;;;;;27.63;18.55;;;6.50;99.90;;;;;;4952898;29;20559;-51
2021/12/17 02:47:24;;;;;;;24.10;18.73;;;6.30;99.90;;;;;;4956873;28;20448;-49
2021/12/17 02:49:50;;;;;;;25.83;17.95;;;6.40;99.90;;;;;;4955408;28;20043;-50
2021/12/17 02:52:17;;;;;;;27.33;18.13;;;6.50;99.90;;;;;;4991883;28;20050;-50
2021/12/17 02:54:43;;;;;;;14.40;9.40;;;6.50;99.90;;;;;;5019562;28;20057;-49
2021/12/17 02:57:11;;;;;;;26.60;19.00;;;6.40;99.90;;;;;;5031688;28;20041;-49
2021/12/17 02:59:38;;;;;;;27.23;19.63;;;6.50;99.90;;;;;;5033200;28;20036;-50
2021/12/17 03:02:10;;;;;;;23.02;16.67;;;6.50;99.90;;;;;;5053721;28;20053;-49
2021/12/17 03:04:39;;;;;;;25.77;17.52;;;6.50;99.90;;;;;;5054548;28;20632;-50
2021/12/17 03:07:13;;;;;;;27.10;17.50;;;6.50;99.90;;;;;;5052040;28;20037;-49
2021/12/17 03:12:19;;;;;;;23.55;18.02;;;6.50;99.90;;;;;;5054302;28;20025;-50
2021/12/17 03:14:59;;;;;;;26.33;18.00;;;6.50;99.90;;;;;;5018055;28;20052;-51
2021/12/17 03:17:52;;;;;;;24.02;16.17;;;6.50;99.90;;;;;;5051390;28;20064;-49
2021/12/17 03:25:40;;;;;;;22.73;16.85;;;6.60;99.90;;;;;;5051426;28;20035;-50
2021/12/17 03:28:05;;;;;;;23.80;15.38;;;6.60;99.90;;;;;;5018100;28;20765;-49
2021/12/17 03:30:31;;;;;;;22.83;16.38;;;6.50;99.90;;;;;;5051089;28;20037;-49
2021/12/17 03:32:57;;;;;;;22.25;13.80;;;6.50;99.90;;;;;;5001326;28;20045;-50
2021/12/17 03:35:23;;;;;;;19.80;14.77;;;6.50;99.90;;;;;;5051209;28;20033;-49
2021/12/17 03:37:49;;;;;;;26.02;16.42;;;6.60;99.90;;;;;;5051177;28;20079;-50
2021/12/17 03:40:17;;;;;;;24.02;17.17;;;6.50;99.90;;;;;;5051091;28;20033;-51
2021/12/17 03:42:47;;;;;;;21.88;16.05;;;6.60;99.90;;;;;;5050983;28;20067;-50
2021/12/17 03:45:15;;;;;;;25.52;17.58;;;6.60;99.90;;;;;;5050535;28;20037;-49
2021/12/17 03:47:40;;;;;;;21.13;15.23;;;6.70;99.90;;;;;;5053463;28;20035;-50
2021/12/17 03:50:06;;;;;;;23.98;17.08;;;6.60;99.90;;;;;;5067848;28;20033;-50
2021/12/17 03:52:32;;;;;;;23.98;16.15;;;6.70;99.90;;;;;;5062685;28;20032;-50
2021/12/17 03:54:58;;;;;;;22.20;15.18;;;6.70;99.90;;;;;;5070636;28;20089;-50
2021/12/17 03:57:24;;;;;;;17.48;11.88;;;6.60;99.90;;;;;;5070720;28;20562;-50
2021/12/17 03:59:51;;;;;;;23.83;16.10;;;6.50;99.90;;;;;;5070447;28;20051;-49
2021/12/17 04:02:17;;;;;;;24.58;16.27;;;6.60;99.90;;;;;;5070565;28;20143;-49
2021/12/17 04:04:43;;;;;;;24.88;15.70;;;6.60;99.90;;;;;;5037042;28;20178;-49
2021/12/17 04:07:09;;;;;;;22.45;15.98;;;6.50;99.90;;;;;;5070579;28;20032;-50
2021/12/17 04:09:35;;;;;;;28.17;18.90;;;6.50;99.90;;;;;;5070401;28;20044;-49
2021/12/17 04:12:03;;;;;;;25.50;19.02;;;6.50;99.90;;;;;;5070455;28;20044;-49
2021/12/17 04:14:43;;;;;;;24.23;18.08;;;6.50;99.90;;;;;;5037379;28;20040;-49
2021/12/17 04:17:09;;;;;;;26.02;17.33;;;6.50;99.90;;;;;;5040980;28;20040;-49
2021/12/17 04:19:35;;;;;;;25.73;17.77;;;6.40;99.90;;;;;;5070413;28;20024;-49
2021/12/17 04:22:02;;;;;;;26.67;18.58;;;6.50;99.90;;;;;;5069952;28;20600;-50
2021/12/17 04:24:28;;;;;;;21.83;14.43;;;6.50;99.90;;;;;;5070436;28;20035;-50
2021/12/17 04:26:54;;;;;;;24.95;15.38;;;6.50;99.90;;;;;;5072241;28;20119;-49
2021/12/17 04:29:21;;;;;;;26.55;19.50;;;6.50;99.90;;;;;;5087372;28;20036;-49
2021/12/17 04:31:52;;;;;;;31.42;21.13;;;6.50;99.90;;;;;;5072696;28;20033;-49
2021/12/17 04:34:20;;;;;;;28.27;19.73;;;6.50;99.90;;;;;;5072996;28;20028;-49
2021/12/17 04:36:48;;;;;;;25.70;19.02;;;6.60;99.90;;;;;;5072511;28;20111;-50
2021/12/17 04:39:19;;;;;;;26.08;19.15;;;6.50;99.90;;;;;;5072481;28;20365;-50
2021/12/17 04:57:28;;;;;;;26.60;18.55;;;6.40;99.90;;;;;;5072536;28;20099;-49
2021/12/17 04:59:58;;;;;;;26.67;17.25;;;6.40;99.90;;;;;;5072373;28;20044;-49
2021/12/17 05:02:24;;;;;;;29.05;18.92;;;6.40;99.90;;;;;;5072034;28;20048;-50
2021/12/17 05:04:52;;;;;;;27.48;18.45;;;6.40;99.90;;;;;;5071975;28;20024;-49
2021/12/17 05:07:18;;;;;;;29.42;19.48;;;6.50;99.90;;;;;;5072339;28;20029;-49
2021/12/17 05:20:52;;;;;;;28.20;19.83;;;6.30;99.90;;;;;;4990812;28;20085;-50
2021/12/17 05:23:23;;;;;;;30.52;21.33;;;6.40;99.90;;;;;;4990392;28;20090;-50
2021/12/17 05:25:50;;;;;;;31.63;18.70;;;6.40;99.90;;;;;;4990557;28;20042;-49
2021/12/17 05:28:15;;;;;;;25.95;18.48;;;6.40;99.90;;;;;;4990260;28;20077;-50
2021/12/17 05:30:46;;;;;;;24.75;17.35;;;6.40;99.90;;;;;;4990230;28;20081;-49
2021/12/17 05:33:16;;;;;;;31.05;19.77;;;6.50;99.90;;;;;;4990215;28;20054;-49
2021/12/17 05:35:42;;;;;;;30.60;20.40;;;6.50;99.90;;;;;;4993291;28;20026;-48
2021/12/17 05:38:09;;;;;;;26.63;18.30;;;6.50;99.90;;;;;;4994105;28;20432;-50
2021/12/17 05:40:35;;;;;;;24.98;15.80;;;6.50;99.90;;;;;;4994180;28;20023;-50
2021/12/17 05:43:02;;;;;;;25.15;19.35;;;6.50;99.90;;;;;;4993884;28;20045;-50
2021/12/17 05:45:47;;;;;;;26.25;17.90;;;6.50;99.90;;;;;;4993709;28;20417;-49
2021/12/17 05:48:16;;;;;;;29.02;18.23;;;6.50;99.90;;;;;;4993986;28;20034;-50
2021/12/17 05:50:44;;;;;;;23.98;16.55;;;6.50;99.90;;;;;;5058042;28;20134;-48
2021/12/17 05:53:11;;;;;;;26.70;18.73;;;6.50;99.90;;;;;;5055590;28;20474;-51
2021/12/17 05:55:37;;;;;;;24.77;14.07;;;6.50;99.90;;;;;;5062967;28;20069;-50
2021/12/17 05:58:04;;;;;;;22.77;15.02;;;6.50;99.90;;;;;;5074936;28;20394;-49
2021/12/17 06:00:31;;;;;;;23.13;17.77;;;6.50;99.90;;;;;;5067359;28;20031;-51
2021/12/17 06:02:58;;;;;;;20.15;14.65;;;6.50;99.90;;;;;;5074588;28;20120;-50
2021/12/17 06:05:25;;;;;;;22.58;16.85;;;6.50;99.90;;;;;;5075187;28;20035;-49
2021/12/17 06:07:51;;;;;;;22.90;16.42;;;6.50;99.90;;;;;;5073076;28;20064;-50
2021/12/17 06:10:17;;;;;;;24.15;16.63;;;6.50;99.90;;;;;;5073034;28;20082;-51
2021/12/17 06:12:43;;;;;;;22.30;16.88;;;6.50;99.90;;;;;;5075224;28;20140;-50
2021/12/17 06:15:12;;;;;;;16.30;11.05;;;6.50;99.90;;;;;;5090029;28;20061;-49
2021/12/17 06:17:38;;;;;;;18.55;14.02;;;6.50;99.90;;;;;;5072894;28;20032;-50
2021/12/17 06:20:06;;;;;;;20.17;13.50;;;6.50;99.90;;;;;;5072823;28;20046;-51
2021/12/17 06:22:32;;;;;;;18.95;12.93;;;6.50;99.90;;;;;;5072932;28;20476;-50
2021/12/17 06:24:58;;;;;;;25.17;19.38;;;6.50;99.90;;;;;;5075094;28;20052;-49
2021/12/17 06:27:25;;;;;;;14.52;8.00;;;6.50;99.90;;;;;;5089522;28;20070;-50
2021/12/17 06:29:51;;;;;;;17.63;13.38;;;6.40;99.90;;;;;;5074875;28;20364;-51
2021/12/17 06:32:18;;;;;;;19.05;13.98;;;6.40;99.90;;;;;;5074638;28;20029;-50
2021/12/17 06:34:43;;;;;;;17.77;13.00;;;6.50;99.90;;;;;;5074690;28;20036;-50
2021/12/17 06:37:10;;;;;;;18.92;12.98;;;6.50;99.90;;;;;;5075397;28;20034;-56
2021/12/17 06:39:36;;;;;;;20.20;14.55;;;6.50;99.90;;;;;;5075386;28;20020;-49
2021/12/17 06:42:03;;;;;;;20.85;15.68;;;6.50;99.90;;;;;;5071609;28;20032;-48
2021/12/17 06:44:29;;;;;;;17.15;12.35;;;6.50;99.90;;;;;;5072495;28;20040;-49
2021/12/17 07:10:59;;;;;;;13.45;8.45;;;6.60;99.90;;;;;;5074276;28;20446;-51
2021/12/17 07:39:38;;;;;;;21.45;15.10;;;6.80;99.90;;;;;;5050952;28;20116;-49
2021/12/17 07:42:04;;;;;;;21.67;16.23;;;6.80;99.90;;;;;;5051116;28;20420;-50
2021/12/17 07:44:30;;;;;;;17.33;11.90;;;6.90;99.90;;;;;;5051155;28;20043;-50
2021/12/17 07:46:56;;;;;;;21.10;15.38;;;6.80;99.90;;;;;;5034337;28;20515;-51
2021/12/17 07:49:22;;;;;;;13.30;9.98;;;6.90;99.90;;;;;;5050878;28;20025;-51
2021/12/17 07:51:48;;;;;;;18.60;14.23;;;6.70;99.90;;;;;;5050895;28;20388;-51
2021/12/17 07:54:14;;;;;;;18.73;13.60;;;6.80;99.90;;;;;;5050671;28;20178;-49
2021/12/17 07:56:40;;;;;;;12.02;8.50;;;6.80;99.90;;;;;;5050098;28;20124;-51
2021/12/17 07:59:08;;;;;;;19.20;13.80;;;6.80;99.90;;;;;;5050845;28;20148;-51
2021/12/17 08:01:35;;;;;;;17.88;13.65;;;6.90;99.90;;;;;;5050430;28;20402;-51
2021/12/17 08:04:02;;;;;;;16.63;11.45;;;6.90;99.90;;;;;;5050693;28;20052;-51
2021/12/17 08:06:28;;;;;;;105.60;55.92;;;6.80;99.90;;;;;;5063938;28;20040;-49
2021/12/17 08:08:53;;;;;;;19.25;14.43;;;6.80;99.90;;;;;;5073146;28;20568;-49
2021/12/17 08:11:19;;;;;;;34.83;22.63;;;6.90;99.90;;;;;;5073083;28;20035;-50
2021/12/17 08:13:46;;;;;;;47.90;27.83;;;6.90;99.90;;;;;;5072947;28;20063;-51
2021/12/17 08:16:28;;;;;;;38.80;24.23;;;6.80;99.90;;;;;;5070598;28;20041;-50
2021/12/17 08:32:07;;;;;;;47.90;26.25;;;7.00;99.90;;;;;;5071284;28;20040;-52
2021/12/17 08:34:34;;;;;;;37.55;22.30;;;7.00;99.90;;;;;;5070630;28;20068;-50
2021/12/17 08:37:01;;;;;;;28.48;17.60;;;7.10;99.90;;;;;;5072443;28;20024;-49
2021/12/17 08:39:29;;;;;;;19.63;13.40;;;7.00;99.90;;;;;;5087572;28;20655;-49
2021/12/17 08:41:55;;;;;;;23.27;14.32;;;7.00;99.90;;;;;;5072603;28;20479;-49
2021/12/17 08:44:22;;;;;;;22.42;14.98;;;7.00;99.90;;;;;;5072405;28;20028;-49
2021/12/17 08:46:49;;;;;;;17.17;12.82;;;7.10;99.90;;;;;;5069768;28;20119;-50
2021/12/17 08:49:15;;;;;;;13.80;10.65;;;7.10;99.90;;;;;;5069987;28;20059;-51
2021/12/17 08:51:42;;;;;;;13.88;11.10;;;7.00;99.90;;;;;;5069816;28;20388;-49
2021/12/17 08:54:09;;;;;;;13.55;10.60;;;7.10;99.90;;;;;;5070238;28;20123;-49
2021/12/17 08:56:42;;;;;;;15.73;10.88;;;7.00;99.90;;;;;;5069879;28;20455;-49
2021/12/17 08:59:08;;;;;;;9.95;7.72;;;7.00;99.90;;;;;;5068080;28;20107;-50
2021/12/17 09:01:34;;;;;;;9.00;6.43;;;7.00;99.90;;;;;;5069724;28;20048;-50
2021/12/17 09:04:01;;;;;;;10.63;8.38;;;6.90;99.90;;;;;;5068807;28;20476;-49
2021/12/17 09:06:28;;;;;;;11.88;8.63;;;7.00;99.90;;;;;;5022779;28;20040;-51
2021/12/17 09:08:55;;;;;;;11.52;7.38;;;7.10;99.90;;;;;;5071856;28;20043;-50
2021/12/17 09:11:22;;;;;;;12.82;9.07;;;7.10;99.90;;;;;;5073898;28;20480;-50
2021/12/17 09:13:49;;;;;;;12.60;9.85;;;7.10;99.90;;;;;;5071597;28;20526;-49
2021/12/17 09:16:15;;;;;;;13.63;9.68;;;7.10;99.90;;;;;;5070385;28;20041;-50
2021/12/17 09:18:42;;;;;;;13.63;9.05;;;7.10;99.90;;;;;;5075095;28;20033;-50
2021/12/17 09:21:07;;;;;;;12.68;9.65;;;7.10;99.90;;;;;;5072056;28;20028;-50
2021/12/17 09:23:33;;;;;;;14.00;9.65;;;7.10;99.90;;;;;;5076170;28;20040;-50
2021/12/17 09:25:59;;;;;;;11.93;8.52;;;7.00;99.90;;;;;;5090782;28;20434;-50
2021/12/17 09:28:25;;;;;;;13.52;8.65;;;7.10;99.90;;;;;;5075905;28;20506;-49
2021/12/17 09:30:51;;;;;;;14.07;6.55;;;7.10;99.90;;;;;;5075869;28;20032;-50
2021/12/17 09:33:17;;;;;;;14.20;9.38;;;7.00;99.90;;;;;;5083556;28;20045;-49
2021/12/17 09:35:43;;;;;;;9.50;6.20;;;7.10;99.90;;;;;;5075961;28;20085;-51
2021/12/17 09:38:09;;;;;;;11.45;8.60;;;7.00;99.90;;;;;;5088957;28;20491;-49
2021/12/17 09:40:35;;;;;;;11.40;9.48;;;7.00;99.90;;;;;;5084775;28;20036;-49
2021/12/17 09:43:01;;;;;;;14.90;10.45;;;7.10;99.90;;;;;;5056629;28;20036;-49
2021/12/17 09:45:26;;;;;;;12.43;9.20;;;7.10;99.90;;;;;;5073709;28;20037;-50
2021/12/17 09:47:53;;;;;;;11.80;8.98;;;7.10;99.90;;;;;;5072237;28;20410;-50
2021/12/17 09:50:21;;;;;;;10.48;7.55;;;7.10;99.90;;;;;;5075508;28;20036;-49
2021/12/17 09:52:48;;;;;;;9.60;7.60;;;7.10;99.90;;;;;;5075531;28;20033;-51
2021/12/17 09:55:14;;;;;;;8.88;6.97;;;7.10;99.90;;;;;;5090242;28;20044;-50
2021/12/17 09:57:40;;;;;;;10.57;8.63;;;7.10;99.90;;;;;;5075615;28;20028;-49
2021/12/17 10:00:14;;;;;;;7.88;4.40;;;7.10;99.90;;;;;;5075605;28;20384;-48
2021/12/17 10:02:45;;;;;;;7.40;5.43;;;7.00;99.90;;;;;;5073151;28;20087;-51
2021/12/17 10:05:18;;;;;;;9.20;7.30;;;7.10;99.90;;;;;;5075326;28;20028;-50
2021/12/17 10:07:45;;;;;;;8.77;7.18;;;7.10;99.90;;;;;;5075454;28;20525;-51
2021/12/17 10:10:12;;;;;;;15.73;9.27;;;7.00;99.90;;;;;;5075251;28;20085;-50
2021/12/17 10:12:40;;;;;;;14.90;9.90;;;7.00;99.90;;;;;;5075530;28;20089;-50
2021/12/17 10:15:15;;;;;;;19.50;12.02;;;7.10;99.90;;;;;;5075161;28;20052;-50
2021/12/17 10:17:52;;;;;;;42.22;23.63;;;7.10;99.90;;;;;;5075100;28;20036;-50
2021/12/17 10:20:19;;;;;;;51.63;29.23;;;7.10;99.90;;;;;;5074366;28;20032;-50
2021/12/17 10:22:47;;;;;;;29.17;20.52;;;7.10;99.90;;;;;;5075070;28;20056;-49
2021/12/17 10:25:13;;;;;;;12.52;8.45;;;7.10;99.90;;;;;;5089707;28;20067;-49
2021/12/17 10:27:41;;;;;;;12.95;9.15;;;7.10;99.90;;;;;;5075093;28;20056;-49
2021/12/17 10:30:16;;;;;;;15.18;12.30;;;7.10;99.90;;;;;;5075068;28;20049;-49
2021/12/17 10:32:48;;;;;;;21.25;14.75;;;7.10;99.90;;;;;;5074815;28;20064;-50
2021/12/17 10:35:19;;;;;;;8.52;6.72;;;7.10;99.90;;;;;;5073360;28;20463;-50
2021/12/17 10:37:57;;;;;;;10.60;7.10;;;7.10;99.90;;;;;;5072814;28;20033;-49
2021/12/17 10:40:32;;;;;;;27.52;17.60;;;7.10;99.90;;;;;;5074574;28;20033;-49
2021/12/17 10:43:28;;;;;;;16.05;11.75;;;7.20;99.90;;;;;;5072880;28;20082;-48
2021/12/17 10:46:00;;;;;;;15.13;12.85;;;7.10;99.90;;;;;;5074769;28;20032;-51
2021/12/17 10:51:07;;;;;;;45.03;26.42;;;7.20;99.90;;;;;;5071509;28;20066;-50
2021/12/17 10:53:33;;;;;;;14.10;6.57;;;7.00;99.90;;;;;;5074172;28;20098;-50
2021/12/17 10:55:59;;;;;;;20.13;10.77;;;6.90;99.90;;;;;;5071827;28;20044;-49
2021/12/17 10:58:26;;;;;;;12.18;8.93;;;7.00;99.90;;;;;;5088509;28;20116;-50
2021/12/17 11:18:00;;;;;;;20.80;9.27;;;7.00;99.90;;;;;;5053663;28;20901;-49
2021/12/17 11:20:34;;;;;;;42.13;17.33;;;7.30;99.90;;;;;;5062847;28;20492;-49
2021/12/17 11:23:06;;;;;;;14.68;8.20;;;7.30;99.90;;;;;;5059125;28;20028;-48
2021/12/17 11:25:33;;;;;;;7.57;5.00;;;7.30;99.90;;;;;;5060264;28;20083;-49
2021/12/17 11:27:59;;;;;;;7.88;5.78;;;7.20;99.90;;;;;;5053331;28;20113;-49
2021/12/17 11:30:28;;;;;;;9.30;6.80;;;7.20;99.90;;;;;;5048811;28;20552;-49
2021/12/17 11:32:55;;;;;;;10.52;7.38;;;7.20;99.90;;;;;;5045805;28;20044;-49
2021/12/17 11:35:23;;;;;;;9.57;7.18;;;7.20;99.90;;;;;;5060646;28;20049;-50
2021/12/17 11:37:51;;;;;;;6.65;5.60;;;7.20;99.90;;;;;;5046356;28;20483;-48
2021/12/17 11:40:43;;;;;;;5.65;3.20;;;7.20;99.90;;;;;;5048870;28;20037;-50
2021/12/17 11:43:26;;;;;;;9.45;6.57;;;7.20;99.90;;;;;;5046153;28;20400;-48
2021/12/17 11:46:01;;;;;;;11.75;7.78;;;7.30;99.90;;;;;;5047404;28;20029;-49
2021/12/17 11:48:29;;;;;;;13.88;7.88;;;7.30;99.90;;;;;;5061599;28;20041;-53
2021/12/17 11:51:23;;;;;;;13.07;9.95;;;7.30;99.90;;;;;;5049844;28;20116;-47
2021/12/17 11:53:52;;;;;;;12.57;7.32;;;7.40;99.90;;;;;;5046056;28;20046;-50
2021/12/17 11:56:52;;;;;;;11.25;6.82;;;7.30;99.90;;;;;;5043478;28;20029;-51
2021/12/17 11:59:27;;;;;;;9.95;7.45;;;7.30;99.90;;;;;;5039174;28;20052;-49
2021/12/17 12:02:11;;;;;;;13.27;8.90;;;7.40;99.90;;;;;;5043241;28;20033;-47
2021/12/17 12:04:40;;;;;;;11.52;8.75;;;7.50;99.90;;;;;;5046470;28;20488;-50
2021/12/17 12:07:18;;;;;;;12.05;8.40;;;7.50;99.90;;;;;;5045421;28;20037;-49
2021/12/17 12:09:57;;;;;;;8.27;4.38;;;7.50;99.90;;;;;;5045031;28;20119;-51
2021/12/17 12:12:45;;;;;;;9.80;6.30;;;7.40;99.90;;;;;;5053389;28;20457;-51
2021/12/17 12:15:17;;;;;;;10.50;6.80;;;7.30;99.90;;;;;;5001612;28;20033;-51
2021/12/17 12:17:58;;;;;;;10.30;7.65;;;7.30;99.90;;;;;;5063139;28;20187;-51
2021/12/17 12:20:49;;;;;;;9.55;6.40;;;7.40;99.90;;;;;;5034299;28;20057;-51
2021/12/17 12:23:17;;;;;;;10.20;6.45;;;7.30;99.90;;;;;;5028351;28;20029;-49
2021/12/17 12:26:16;;;;;;;8.38;5.72;;;7.30;99.90;;;;;;5032039;28;20042;-51
2021/12/17 12:28:53;;;;;;;10.05;6.75;;;7.30;99.90;;;;;;5029404;28;20036;-50
2021/12/17 12:31:24;;;;;;;8.13;5.95;;;7.30;99.90;;;;;;5034585;28;20036;-51
2021/12/17 12:34:09;;;;;;;10.45;6.45;;;7.30;99.90;;;;;;5027731;28;20736;-49
2021/12/17 12:37:00;;;;;;;12.80;8.43;;;7.40;99.90;;;;;;5028781;28;20046;-51
2021/12/17 12:39:49;;;;;;;9.07;5.07;;;7.40;99.90;;;;;;5033437;28;20044;-50
2021/12/17 12:42:35;;;;;;;11.98;6.47;;;7.40;99.90;;;;;;5029237;28;20030;-49
2021/12/17 12:45:06;;;;;;;9.93;5.72;;;7.50;99.90;;;;;;5033882;28;20112;-48
2021/12/17 12:47:42;;;;;;;11.05;6.78;;;7.50;99.90;;;;;;5031301;28;20049;-51
2021/12/17 12:50:11;;;;;;;10.05;5.85;;;7.70;99.90;;;;;;5034422;28;20033;-49
2021/12/17 12:52:44;;;;;;;13.75;6.97;;;7.80;99.90;;;;;;5030181;28;20404;-47
2021/12/17 12:55:28;;;;;;;12.10;6.97;;;7.70;99.90;;;;;;5030983;28;20064;-51
2021/12/17 12:58:06;;;;;;;11.70;7.20;;;7.70;99.90;;;;;;5042876;28;20046;-50
2021/12/17 13:00:54;;;;;;;16.67;8.80;;;7.80;99.90;;;;;;5031000;28;20392;-50
2021/12/17 13:03:30;;;;;;;14.23;8.32;;;7.90;99.90;;;;;;5024809;28;20050;-50
2021/12/17 13:05:59;;;;;;;11.55;7.15;;;7.90;99.90;;;;;;5048530;28;20041;-51
2021/12/17 13:08:26;;;;;;;17.92;11.00;;;8.00;99.90;;;;;;5030974;28;20511;-49
2021/12/17 13:10:58;;;;;;;29.77;18.65;;;8.00;99.90;;;;;;5031430;28;20037;-50
2021/12/17 13:13:34;;;;;;;58.47;31.90;;;8.00;99.90;;;;;;5028553;28;20041;-50
2021/12/17 13:16:11;;;;;;;14.63;8.68;;;7.90;99.90;;;;;;5030275;28;20058;-48
2021/12/17 13:24:11;;;;;;;8.50;5.18;;;7.60;99.90;;;;;;5029002;28;20036;-48
2021/12/17 13:26:41;;;;;;;11.90;6.30;;;7.50;99.90;;;;;;5029737;28;20049;-50
2021/12/17 13:29:14;;;;;;;9.88;4.50;;;7.50;99.90;;;;;;5029869;28;20045;-49
2021/12/17 13:31:57;;;;;;;5.07;3.90;;;7.40;99.90;;;;;;5026160;28;20029;-50
2021/12/17 13:34:33;;;;;;;10.55;6.05;;;7.40;99.90;;;;;;5024456;28;20064;-50
2021/12/17 13:37:02;;;;;;;11.30;5.80;;;7.50;99.90;;;;;;5046444;28;20095;-47
2021/12/17 13:39:35;;;;;;;9.40;4.65;;;7.40;99.90;;;;;;5046473;28;20099;-50
2021/12/17 13:42:02;;;;;;;9.75;6.13;;;7.40;99.90;;;;;;5032652;28;20025;-50
2021/12/17 13:44:48;;;;;;;9.38;6.60;;;7.50;99.90;;;;;;5031044;28;20033;-49
2021/12/17 13:47:20;;;;;;;148.60;66.57;;;7.40;99.90;;;;;;5044964;28;20053;-49
2021/12/17 13:50:06;;;;;;;103.93;43.00;;;7.40;99.90;;;;;;5030051;28;20060;-48
2021/12/17 13:52:35;;;;;;;72.10;27.83;;;7.50;99.90;;;;;;5030697;28;20648;-48
2021/12/17 13:55:05;;;;;;;22.25;10.63;;;7.40;99.90;;;;;;5030690;28;20022;-50
2021/12/17 13:57:32;;;;;;;20.55;10.50;;;7.30;99.90;;;;;;5023917;28;20075;-53
2021/12/17 14:00:13;;;;;;;180.25;84.30;;;7.30;99.90;;;;;;5029641;28;20029;-50
2021/12/17 14:02:40;;;;;;;25.52;16.48;;;7.30;99.90;;;;;;4990898;28;20050;-53
2021/12/17 14:05:06;;;;;;;10.35;7.47;;;7.30;99.90;;;;;;5032298;28;20543;-46
2021/12/17 14:07:34;;;;;;;18.85;12.15;;;7.20;99.90;;;;;;5027274;28;20037;-51
2021/12/17 14:10:13;;;;;;;10.65;6.15;;;7.30;99.90;;;;;;5032097;28;20102;-57
2021/12/17 14:12:41;;;;;;;15.23;7.45;;;7.30;99.90;;;;;;5031363;28;20385;-49
2021/12/17 14:15:15;;;;;;;12.68;6.25;;;7.40;99.90;;;;;;5047064;28;20365;-45
2021/12/17 14:17:44;;;;;;;13.23;6.93;;;7.30;99.90;;;;;;5031597;28;20053;-50
2021/12/17 14:20:17;;;;;;;11.20;5.93;;;7.30;99.90;;;;;;5030021;28;20416;-52
2021/12/17 14:22:48;;;;;;;12.35;5.57;;;7.30;99.90;;;;;;5043994;28;20039;-47
2021/12/17 14:25:26;;;;;;;8.23;4.90;;;7.30;99.90;;;;;;5027154;28;20040;-51
2021/12/17 14:27:53;;;;;;;8.85;6.22;;;7.30;99.90;;;;;;5030241;28;21067;-56
2021/12/17 14:30:25;;;;;;;7.10;4.95;;;7.30;99.90;;;;;;5029755;28;20029;-52
2021/12/17 14:32:51;;;;;;;11.02;5.20;;;7.30;99.90;;;;;;5029138;28;20542;-52
2021/12/17 14:35:42;;;;;;;8.13;4.88;;;7.20;99.90;;;;;;5030596;28;20030;-54
2021/12/17 14:38:08;;;;;;;10.25;4.75;;;7.20;99.90;;;;;;5029272;28;20900;-52
2021/12/17 14:40:42;;;;;;;9.00;5.05;;;7.20;99.90;;;;;;5044631;28;20053;-52
2021/12/17 14:43:30;;;;;;;8.18;4.30;;;7.20;99.90;;;;;;5029225;28;20038;-50
2021/12/17 14:46:17;;;;;;;9.18;5.03;;;7.20;99.90;;;;;;5031903;28;20033;-49
2021/12/17 14:49:06;;;;;;;8.63;4.60;;;7.50;99.90;;;;;;5032139;28;20100;-54
2021/12/17 14:57:26;;;;;;;9.18;4.72;;;7.30;99.90;;;;;;5032167;28;20388;-51
2021/12/17 15:05:13;;;;;;;14.77;9.25;;;7.30;99.90;;;;;;5031153;28;20112;-49
2021/12/17 15:07:39;;;;;;;15.38;8.55;;;7.30;99.90;;;;;;5029308;28;20056;-54
2021/12/17 15:10:10;;;;;;;22.98;13.75;;;7.30;99.90;;;;;;5031445;28;20035;-52
2021/12/17 15:12:38;;;;;;;16.33;9.20;;;7.40;99.90;;;;;;5045475;28;20083;-57
2021/12/17 15:15:15;;;;;;;23.30;14.60;;;7.60;99.90;;;;;;5031162;28;20030;-55
2021/12/17 15:17:43;;;;;;;20.35;13.02;;;7.70;99.90;;;;;;5031616;28;20057;-51
2021/12/17 15:20:12;;;;;;;25.40;14.75;;;7.80;99.90;;;;;;5046208;28;20056;-50
2021/12/17 15:22:38;;;;;;;17.55;10.75;;;7.80;99.90;;;;;;5031751;28;20037;-54
2021/12/17 15:25:08;;;;;;;15.63;9.77;;;7.80;99.90;;;;;;5031692;28;20087;-53
2021/12/17 15:27:35;;;;;;;17.17;8.90;;;7.90;99.90;;;;;;5031780;28;20073;-56
2021/12/17 15:30:16;;;;;;;21.83;12.48;;;7.90;99.90;;;;;;5031622;28;20091;-55
2021/12/17 15:32:43;;;;;;;13.93;9.13;;;7.80;99.90;;;;;;5044863;28;20041;-52
2021/12/17 15:35:12;;;;;;;15.05;9.13;;;7.80;99.90;;;;;;5031577;28;20401;-54
2021/12/17 15:37:39;;;;;;;13.43;8.32;;;7.80;99.90;;;;;;5031695;28;20044;-52
2021/12/17 15:40:07;;;;;;;15.90;7.45;;;7.70;99.90;;;;;;5031581;28;20560;-55
2021/12/17 15:42:33;;;;;;;16.10;8.95;;;7.60;99.90;;;;;;5012887;28;20113;-55
2021/12/17 15:44:59;;;;;;;15.90;9.77;;;7.60;99.90;;;;;;5031523;28;20119;-52
2021/12/17 15:47:24;;;;;;;13.30;9.80;;;7.60;99.90;;;;;;5020078;28;20119;-52
2021/12/17 15:49:50;;;;;;;14.85;8.63;;;7.60;99.90;;;;;;5042084;28;20492;-53
2021/12/17 15:52:16;;;;;;;14.25;8.57;;;7.60;99.90;;;;;;5033446;28;20056;-53
2021/12/17 15:54:43;;;;;;;11.13;7.40;;;7.60;99.90;;;;;;5034350;28;20111;-48
2021/12/17 15:57:10;;;;;;;14.02;8.40;;;7.40;99.90;;;;;;5038928;28;20045;-52
2021/12/17 15:59:36;;;;;;;14.82;8.52;;;7.40;99.90;;;;;;5079026;28;20041;-54
2021/12/17 16:02:03;;;;;;;14.95;9.40;;;7.50;99.90;;;;;;5049426;28;20025;-54
2021/12/17 16:04:34;;;;;;;14.60;9.30;;;7.40;99.90;;;;;;5008908;28;20044;-51
2021/12/17 16:07:01;;;;;;;17.13;10.00;;;7.40;99.90;;;;;;5041327;28;20041;-53
2021/12/17 16:12:06;;;;;;;14.90;7.97;;;7.40;99.90;;;;;;5043024;28;20043;-52
2021/12/17 16:22:30;;;;;;;22.13;15.52;;;7.20;99.90;;;;;;5029040;28;20152;-54
2021/12/17 16:24:56;;;;;;;20.50;15.25;;;7.20;99.90;;;;;;5030647;28;20096;-57
2021/12/17 16:27:22;;;;;;;23.60;18.35;;;7.20;99.90;;;;;;5038914;28;20060;-55
2021/12/17 16:29:48;;;;;;;17.85;12.18;;;7.30;99.90;;;;;;5013548;28;20033;-51
2021/12/17 16:32:14;;;;;;;19.30;11.88;;;7.20;99.90;;;;;;5031665;28;20529;-52
2021/12/17 16:34:39;;;;;;;20.02;12.35;;;7.10;99.90;;;;;;5028946;28;20055;-52
2021/12/17 16:37:05;;;;;;;15.60;11.15;;;7.10;99.90;;;;;;5030874;28;20108;-49
2021/12/17 16:39:31;;;;;;;18.48;11.95;;;7.20;99.90;;;;;;5031482;28;20112;-50
2021/12/17 16:41:58;;;;;;;15.98;9.07;;;7.10;99.90;;;;;;4983169;28;20514;-59
2021/12/17 16:44:39;;;;;;;12.27;8.25;;;7.10;99.90;;;;;;5032641;28;20033;-52
2021/12/17 16:47:05;;;;;;;14.95;9.57;;;7.00;99.90;;;;;;5031551;28;20045;-57
2021/12/17 16:49:33;;;;;;;11.68;7.68;;;7.10;99.90;;;;;;5014738;28;20090;-54
2021/12/17 16:51:59;;;;;;;10.05;6.95;;;7.00;99.90;;;;;;5032586;28;20072;-52
2021/12/17 16:54:25;;;;;;;10.43;6.63;;;7.10;99.90;;;;;;5023011;28;20505;-54